sensor_id;sensor_type;location;lat;lon;timestamp;P1;durP1;ratioP1;P2;durP2;ratioP2
30307;SDS011;17114;52.314;8.910;2023-02-22T00:01:33;68.70;;;29.10;;
30307;SDS011;17114;52.314;8.910;2023-02-22T00:04:01;63.83;;;28.00;;
30307;SDS011;17114;52.314;8.910;2023-02-22T00:06:31;65.93;;;28.08;;
30307;SDS011;17114;52.314;8.910;2023-02-22T00:09:00;68.78;;;28.17;;
30307;SDS011;17114;52.314;8.910;2023-02-22T00:11:28;70.53;;;29.40;;
30307;SDS011;17114;52.314;8.910;2023-02-22T00:13:56;62.83;;;27.65;;
30307;SDS011;17114;52.314;8.910;2023-02-22T00:16:27;67.57;;;29.77;;
30307;SDS011;17114;52.314;8.910;2023-02-22T00:18:56;67.15;;;28.33;;
30307;SDS011;17114;52.314;8.910;2023-02-22T00:21:23;65.60;;;28.55;;
30307;SDS011;17114;52.314;8.910;2023-02-22T00:23:49;64.88;;;28.75;;
30307;SDS011;17114;52.314;8.910;2023-02-22T00:26:20;63.15;;;26.02;;
30307;SDS011;17114;52.314;8.910;2023-02-22T00:28:52;63.03;;;27.10;;
30307;SDS011;17114;52.314;8.910;2023-02-22T00:31:19;67.03;;;27.35;;
30307;SDS011;17114;52.314;8.910;2023-02-22T00:33:47;71.03;;;29.42;;
30307;SDS011;17114;52.314;8.910;2023-02-22T00:36:14;64.95;;;27.92;;
30307;SDS011;17114;52.314;8.910;2023-02-22T00:38:41;67.45;;;28.90;;
30307;SDS011;17114;52.314;8.910;2023-02-22T00:41:08;67.85;;;27.08;;
30307;SDS011;17114;52.314;8.910;2023-02-22T00:43:35;71.25;;;29.30;;
30307;SDS011;17114;52.314;8.910;2023-02-22T00:46:03;64.68;;;27.02;;
30307;SDS011;17114;52.314;8.910;2023-02-22T00:48:30;70.13;;;28.02;;
30307;SDS011;17114;52.314;8.910;2023-02-22T00:50:59;65.95;;;27.45;;
30307;SDS011;17114;52.314;8.910;2023-02-22T00:53:26;70.65;;;27.15;;
30307;SDS011;17114;52.314;8.910;2023-02-22T00:55:53;70.20;;;26.92;;
30307;SDS011;17114;52.314;8.910;2023-02-22T00:58:20;66.00;;;25.02;;
30307;SDS011;17114;52.314;8.910;2023-02-22T01:00:47;52.40;;;20.40;;
30307;SDS011;17114;52.314;8.910;2023-02-22T01:03:17;57.70;;;23.15;;
30307;SDS011;17114;52.314;8.910;2023-02-22T01:05:45;53.97;;;20.90;;
30307;SDS011;17114;52.314;8.910;2023-02-22T01:08:14;55.88;;;21.33;;
30307;SDS011;17114;52.314;8.910;2023-02-22T01:10:42;52.10;;;21.17;;
30307;SDS011;17114;52.314;8.910;2023-02-22T01:13:09;57.70;;;22.40;;
30307;SDS011;17114;52.314;8.910;2023-02-22T01:15:39;53.17;;;21.85;;
30307;SDS011;17114;52.314;8.910;2023-02-22T01:18:08;59.90;;;23.80;;
30307;SDS011;17114;52.314;8.910;2023-02-22T01:20:35;54.95;;;21.02;;
30307;SDS011;17114;52.314;8.910;2023-02-22T01:23:03;54.05;;;21.30;;
30307;SDS011;17114;52.314;8.910;2023-02-22T01:25:33;49.90;;;19.25;;
30307;SDS011;17114;52.314;8.910;2023-02-22T01:28:01;53.83;;;20.63;;
30307;SDS011;17114;52.314;8.910;2023-02-22T01:30:29;50.65;;;19.67;;
30307;SDS011;17114;52.314;8.910;2023-02-22T01:32:58;48.67;;;19.40;;
30307;SDS011;17114;52.314;8.910;2023-02-22T01:35:30;50.70;;;19.40;;
30307;SDS011;17114;52.314;8.910;2023-02-22T01:37:59;53.75;;;20.70;;
30307;SDS011;17114;52.314;8.910;2023-02-22T01:40:34;53.60;;;19.90;;
30307;SDS011;17114;52.314;8.910;2023-02-22T01:43:04;51.72;;;19.42;;
30307;SDS011;17114;52.314;8.910;2023-02-22T01:45:42;48.88;;;19.33;;
30307;SDS011;17114;52.314;8.910;2023-02-22T01:48:23;49.70;;;19.70;;
30307;SDS011;17114;52.314;8.910;2023-02-22T01:50:57;48.35;;;20.08;;
30307;SDS011;17114;52.314;8.910;2023-02-22T01:53:34;50.08;;;19.60;;
30307;SDS011;17114;52.314;8.910;2023-02-22T01:56:05;52.97;;;20.85;;
30307;SDS011;17114;52.314;8.910;2023-02-22T01:58:33;48.67;;;19.67;;
30307;SDS011;17114;52.314;8.910;2023-02-22T02:01:02;50.38;;;19.00;;
30307;SDS011;17114;52.314;8.910;2023-02-22T02:03:31;45.45;;;18.85;;
30307;SDS011;17114;52.314;8.910;2023-02-22T02:06:01;47.83;;;18.50;;
30307;SDS011;17114;52.314;8.910;2023-02-22T02:11:05;49.20;;;18.20;;
30307;SDS011;17114;52.314;8.910;2023-02-22T02:13:34;45.75;;;19.30;;
30307;SDS011;17114;52.314;8.910;2023-02-22T02:16:02;53.92;;;19.90;;
30307;SDS011;17114;52.314;8.910;2023-02-22T02:18:29;48.78;;;18.98;;
30307;SDS011;17114;52.314;8.910;2023-02-22T02:31:58;55.10;;;20.23;;
30307;SDS011;17114;52.314;8.910;2023-02-22T02:46:51;53.58;;;19.95;;
30307;SDS011;17114;52.314;8.910;2023-02-22T02:49:36;48.80;;;19.20;;
30307;SDS011;17114;52.314;8.910;2023-02-22T02:52:23;45.13;;;17.80;;
30307;SDS011;17114;52.314;8.910;2023-02-22T02:54:58;44.88;;;18.33;;
30307;SDS011;17114;52.314;8.910;2023-02-22T02:57:32;44.20;;;18.05;;
30307;SDS011;17114;52.314;8.910;2023-02-22T03:00:00;41.20;;;15.73;;
30307;SDS011;17114;52.314;8.910;2023-02-22T03:08:56;41.00;;;15.98;;
30307;SDS011;17114;52.314;8.910;2023-02-22T03:12:02;37.60;;;14.23;;
30307;SDS011;17114;52.314;8.910;2023-02-22T03:17:30;42.40;;;16.13;;
30307;SDS011;17114;52.314;8.910;2023-02-22T03:29:21;45.55;;;17.83;;
30307;SDS011;17114;52.314;8.910;2023-02-22T03:31:55;39.88;;;16.02;;
30307;SDS011;17114;52.314;8.910;2023-02-22T03:34:33;39.38;;;16.75;;
30307;SDS011;17114;52.314;8.910;2023-02-22T03:37:19;44.92;;;16.80;;
30307;SDS011;17114;52.314;8.910;2023-02-22T03:39:51;50.35;;;17.35;;
30307;SDS011;17114;52.314;8.910;2023-02-22T03:42:31;43.58;;;15.80;;
30307;SDS011;17114;52.314;8.910;2023-02-22T03:45:03;44.55;;;16.67;;
30307;SDS011;17114;52.314;8.910;2023-02-22T03:48:21;40.03;;;15.77;;
30307;SDS011;17114;52.314;8.910;2023-02-22T03:50:35;42.90;;;16.92;;
30307;SDS011;17114;52.314;8.910;2023-02-22T03:53:05;42.08;;;16.08;;
30307;SDS011;17114;52.314;8.910;2023-02-22T03:55:35;39.10;;;16.42;;
30307;SDS011;17114;52.314;8.910;2023-02-22T03:58:09;40.38;;;16.13;;
30307;SDS011;17114;52.314;8.910;2023-02-22T04:00:39;41.70;;;17.10;;
30307;SDS011;17114;52.314;8.910;2023-02-22T04:03:12;44.80;;;16.63;;
30307;SDS011;17114;52.314;8.910;2023-02-22T04:05:49;45.55;;;17.15;;
30307;SDS011;17114;52.314;8.910;2023-02-22T04:08:19;46.28;;;17.45;;
30307;SDS011;17114;52.314;8.910;2023-02-22T04:10:50;46.00;;;17.13;;
30307;SDS011;17114;52.314;8.910;2023-02-22T04:13:17;41.72;;;16.80;;
30307;SDS011;17114;52.314;8.910;2023-02-22T04:15:44;44.60;;;16.98;;
30307;SDS011;17114;52.314;8.910;2023-02-22T04:18:11;44.75;;;17.83;;
30307;SDS011;17114;52.314;8.910;2023-02-22T04:20:42;46.88;;;16.80;;
30307;SDS011;17114;52.314;8.910;2023-02-22T04:23:10;43.40;;;15.75;;
30307;SDS011;17114;52.314;8.910;2023-02-22T04:25:48;40.42;;;16.38;;
30307;SDS011;17114;52.314;8.910;2023-02-22T04:28:15;43.90;;;15.48;;
30307;SDS011;17114;52.314;8.910;2023-02-22T04:30:42;41.63;;;16.67;;
30307;SDS011;17114;52.314;8.910;2023-02-22T04:33:11;40.40;;;16.10;;
30307;SDS011;17114;52.314;8.910;2023-02-22T04:35:39;45.00;;;16.88;;
30307;SDS011;17114;52.314;8.910;2023-02-22T04:38:06;41.42;;;16.00;;
30307;SDS011;17114;52.314;8.910;2023-02-22T04:40:34;42.38;;;15.75;;
30307;SDS011;17114;52.314;8.910;2023-02-22T04:43:01;39.47;;;15.70;;
30307;SDS011;17114;52.314;8.910;2023-02-22T04:45:28;40.83;;;16.02;;
30307;SDS011;17114;52.314;8.910;2023-02-22T04:47:56;44.50;;;16.15;;
30307;SDS011;17114;52.314;8.910;2023-02-22T04:50:23;43.25;;;14.82;;
30307;SDS011;17114;52.314;8.910;2023-02-22T04:52:50;37.65;;;15.70;;
30307;SDS011;17114;52.314;8.910;2023-02-22T04:55:17;38.08;;;15.07;;
30307;SDS011;17114;52.314;8.910;2023-02-22T04:57:45;43.72;;;16.15;;
30307;SDS011;17114;52.314;8.910;2023-02-22T05:00:15;35.90;;;14.20;;
30307;SDS011;17114;52.314;8.910;2023-02-22T05:02:43;39.22;;;15.73;;
30307;SDS011;17114;52.314;8.910;2023-02-22T05:05:12;40.58;;;17.60;;
30307;SDS011;17114;52.314;8.910;2023-02-22T05:07:41;41.42;;;15.90;;
30307;SDS011;17114;52.314;8.910;2023-02-22T05:10:09;36.35;;;14.38;;
30307;SDS011;17114;52.314;8.910;2023-02-22T05:12:38;40.33;;;14.90;;
30307;SDS011;17114;52.314;8.910;2023-02-22T05:15:06;40.00;;;15.80;;
30307;SDS011;17114;52.314;8.910;2023-02-22T05:17:34;42.25;;;15.35;;
30307;SDS011;17114;52.314;8.910;2023-02-22T05:20:02;39.85;;;15.10;;
30307;SDS011;17114;52.314;8.910;2023-02-22T05:22:30;37.30;;;14.65;;
30307;SDS011;17114;52.314;8.910;2023-02-22T05:24:58;37.33;;;15.45;;
30307;SDS011;17114;52.314;8.910;2023-02-22T05:27:24;44.88;;;15.15;;
30307;SDS011;17114;52.314;8.910;2023-02-22T05:29:51;40.70;;;14.60;;
30307;SDS011;17114;52.314;8.910;2023-02-22T05:32:18;41.95;;;14.93;;
30307;SDS011;17114;52.314;8.910;2023-02-22T05:34:46;42.17;;;16.23;;
30307;SDS011;17114;52.314;8.910;2023-02-22T05:37:13;44.72;;;17.00;;
30307;SDS011;17114;52.314;8.910;2023-02-22T05:39:40;45.08;;;17.35;;
30307;SDS011;17114;52.314;8.910;2023-02-22T05:42:07;43.50;;;16.83;;
30307;SDS011;17114;52.314;8.910;2023-02-22T05:44:34;48.92;;;18.42;;
30307;SDS011;17114;52.314;8.910;2023-02-22T05:47:01;54.70;;;19.20;;
30307;SDS011;17114;52.314;8.910;2023-02-22T05:49:28;51.55;;;18.80;;
30307;SDS011;17114;52.314;8.910;2023-02-22T05:51:55;58.85;;;20.60;;
30307;SDS011;17114;52.314;8.910;2023-02-22T05:54:24;59.58;;;20.80;;
30307;SDS011;17114;52.314;8.910;2023-02-22T05:56:51;64.13;;;20.88;;
30307;SDS011;17114;52.314;8.910;2023-02-22T05:59:18;67.70;;;21.92;;
30307;SDS011;17114;52.314;8.910;2023-02-22T06:01:46;73.13;;;25.35;;
30307;SDS011;17114;52.314;8.910;2023-02-22T06:04:13;77.05;;;25.17;;
30307;SDS011;17114;52.314;8.910;2023-02-22T06:06:42;80.10;;;24.92;;
30307;SDS011;17114;52.314;8.910;2023-02-22T06:09:09;71.65;;;24.17;;
30307;SDS011;17114;52.314;8.910;2023-02-22T06:11:36;74.25;;;23.83;;
30307;SDS011;17114;52.314;8.910;2023-02-22T06:14:06;79.63;;;25.67;;
30307;SDS011;17114;52.314;8.910;2023-02-22T06:16:33;79.90;;;26.15;;
30307;SDS011;17114;52.314;8.910;2023-02-22T06:19:02;76.50;;;25.17;;
30307;SDS011;17114;52.314;8.910;2023-02-22T06:21:31;69.30;;;25.15;;
30307;SDS011;17114;52.314;8.910;2023-02-22T06:23:58;71.82;;;26.33;;
30307;SDS011;17114;52.314;8.910;2023-02-22T06:29:07;72.30;;;25.10;;
30307;SDS011;17114;52.314;8.910;2023-02-22T06:31:37;77.85;;;26.25;;
30307;SDS011;17114;52.314;8.910;2023-02-22T06:34:10;78.18;;;26.13;;
30307;SDS011;17114;52.314;8.910;2023-02-22T06:36:42;77.05;;;26.10;;
30307;SDS011;17114;52.314;8.910;2023-02-22T06:39:16;76.75;;;25.38;;
30307;SDS011;17114;52.314;8.910;2023-02-22T06:41:52;83.00;;;27.23;;
30307;SDS011;17114;52.314;8.910;2023-02-22T06:44:23;76.50;;;24.98;;
30307;SDS011;17114;52.314;8.910;2023-02-22T06:46:50;72.95;;;24.77;;
30307;SDS011;17114;52.314;8.910;2023-02-22T06:49:18;69.72;;;26.13;;
30307;SDS011;17114;52.314;8.910;2023-02-22T06:51:45;77.25;;;28.52;;
30307;SDS011;17114;52.314;8.910;2023-02-22T06:54:13;80.15;;;26.83;;
30307;SDS011;17114;52.314;8.910;2023-02-22T06:56:40;87.28;;;27.88;;
30307;SDS011;17114;52.314;8.910;2023-02-22T06:59:13;77.80;;;26.33;;
30307;SDS011;17114;52.314;8.910;2023-02-22T07:01:47;73.13;;;26.13;;
30307;SDS011;17114;52.314;8.910;2023-02-22T07:04:22;91.45;;;28.80;;
30307;SDS011;17114;52.314;8.910;2023-02-22T07:06:49;86.43;;;27.33;;
30307;SDS011;17114;52.314;8.910;2023-02-22T07:09:17;77.95;;;26.73;;
30307;SDS011;17114;52.314;8.910;2023-02-22T07:11:44;83.03;;;28.08;;
30307;SDS011;17114;52.314;8.910;2023-02-22T07:14:16;84.38;;;27.77;;
30307;SDS011;17114;52.314;8.910;2023-02-22T07:16:44;88.43;;;29.63;;
30307;SDS011;17114;52.314;8.910;2023-02-22T07:19:10;82.00;;;27.13;;
30307;SDS011;17114;52.314;8.910;2023-02-22T07:21:39;87.72;;;29.80;;
30307;SDS011;17114;52.314;8.910;2023-02-22T07:24:06;75.35;;;27.70;;
30307;SDS011;17114;52.314;8.910;2023-02-22T07:26:40;80.93;;;29.00;;
30307;SDS011;17114;52.314;8.910;2023-02-22T07:32:36;80.35;;;29.20;;
30307;SDS011;17114;52.314;8.910;2023-02-22T07:35:04;74.88;;;27.48;;
30307;SDS011;17114;52.314;8.910;2023-02-22T07:37:31;79.30;;;28.05;;
30307;SDS011;17114;52.314;8.910;2023-02-22T07:40:12;70.68;;;25.98;;
30307;SDS011;17114;52.314;8.910;2023-02-22T07:42:56;66.20;;;25.58;;
30307;SDS011;17114;52.314;8.910;2023-02-22T07:45:28;63.25;;;26.52;;
30307;SDS011;17114;52.314;8.910;2023-02-22T07:50:28;61.00;;;25.10;;
30307;SDS011;17114;52.314;8.910;2023-02-22T07:53:24;58.80;;;24.90;;
30307;SDS011;17114;52.314;8.910;2023-02-22T07:55:59;60.50;;;25.20;;
30307;SDS011;17114;52.314;8.910;2023-02-22T07:58:29;57.47;;;24.35;;
30307;SDS011;17114;52.314;8.910;2023-02-22T08:00:57;48.47;;;22.33;;
30307;SDS011;17114;52.314;8.910;2023-02-22T08:03:29;50.33;;;21.55;;
30307;SDS011;17114;52.314;8.910;2023-02-22T08:05:59;51.72;;;22.20;;
30307;SDS011;17114;52.314;8.910;2023-02-22T08:08:28;48.78;;;22.33;;
30307;SDS011;17114;52.314;8.910;2023-02-22T08:10:55;47.10;;;23.00;;
30307;SDS011;17114;52.314;8.910;2023-02-22T08:13:22;50.15;;;23.60;;
30307;SDS011;17114;52.314;8.910;2023-02-22T08:16:01;50.03;;;23.45;;
30307;SDS011;17114;52.314;8.910;2023-02-22T08:18:49;56.45;;;23.73;;
30307;SDS011;17114;52.314;8.910;2023-02-22T08:21:16;53.05;;;23.40;;
30307;SDS011;17114;52.314;8.910;2023-02-22T08:23:44;45.20;;;22.23;;
30307;SDS011;17114;52.314;8.910;2023-02-22T08:26:11;53.15;;;23.98;;
30307;SDS011;17114;52.314;8.910;2023-02-22T08:28:42;46.20;;;21.52;;
30307;SDS011;17114;52.314;8.910;2023-02-22T08:31:09;48.47;;;22.20;;
30307;SDS011;17114;52.314;8.910;2023-02-22T08:34:06;48.88;;;22.10;;
30307;SDS011;17114;52.314;8.910;2023-02-22T08:36:40;53.78;;;22.67;;
30307;SDS011;17114;52.314;8.910;2023-02-22T08:39:07;49.65;;;22.23;;
30307;SDS011;17114;52.314;8.910;2023-02-22T08:41:40;48.65;;;22.90;;
30307;SDS011;17114;52.314;8.910;2023-02-22T08:44:07;51.70;;;22.90;;
30307;SDS011;17114;52.314;8.910;2023-02-22T08:46:34;46.65;;;22.40;;
30307;SDS011;17114;52.314;8.910;2023-02-22T08:49:01;50.25;;;23.35;;
30307;SDS011;17114;52.314;8.910;2023-02-22T08:51:29;44.47;;;21.52;;
30307;SDS011;17114;52.314;8.910;2023-02-22T08:54:01;43.40;;;20.83;;
30307;SDS011;17114;52.314;8.910;2023-02-22T08:59:52;47.33;;;21.63;;
30307;SDS011;17114;52.314;8.910;2023-02-22T09:02:31;47.30;;;23.73;;
30307;SDS011;17114;52.314;8.910;2023-02-22T09:04:58;43.38;;;20.73;;
30307;SDS011;17114;52.314;8.910;2023-02-22T09:07:34;47.38;;;22.48;;
30307;SDS011;17114;52.314;8.910;2023-02-22T09:10:01;43.90;;;20.80;;
30307;SDS011;17114;52.314;8.910;2023-02-22T09:12:29;45.63;;;21.38;;
30307;SDS011;17114;52.314;8.910;2023-02-22T09:14:56;46.63;;;23.10;;
30307;SDS011;17114;52.314;8.910;2023-02-22T09:17:23;42.53;;;22.13;;
30307;SDS011;17114;52.314;8.910;2023-02-22T09:19:50;44.40;;;21.83;;
30307;SDS011;17114;52.314;8.910;2023-02-22T09:22:23;42.83;;;22.17;;
30307;SDS011;17114;52.314;8.910;2023-02-22T09:25:14;44.92;;;21.90;;
30307;SDS011;17114;52.314;8.910;2023-02-22T09:27:48;43.05;;;21.30;;
30307;SDS011;17114;52.314;8.910;2023-02-22T09:30:21;42.95;;;22.80;;
30307;SDS011;17114;52.314;8.910;2023-02-22T09:33:28;39.50;;;20.23;;
30307;SDS011;17114;52.314;8.910;2023-02-22T09:35:55;48.20;;;22.08;;
30307;SDS011;17114;52.314;8.910;2023-02-22T09:38:23;39.30;;;21.15;;
30307;SDS011;17114;52.314;8.910;2023-02-22T09:40:52;46.95;;;22.17;;
30307;SDS011;17114;52.314;8.910;2023-02-22T09:55:16;42.10;;;20.10;;
30307;SDS011;17114;52.314;8.910;2023-02-22T09:58:13;38.50;;;20.65;;
30307;SDS011;17114;52.314;8.910;2023-02-22T10:00:55;41.47;;;21.73;;
30307;SDS011;17114;52.314;8.910;2023-02-22T10:03:30;41.38;;;21.23;;
30307;SDS011;17114;52.314;8.910;2023-02-22T10:06:11;42.33;;;22.30;;
30307;SDS011;17114;52.314;8.910;2023-02-22T10:08:42;40.58;;;20.95;;
30307;SDS011;17114;52.314;8.910;2023-02-22T10:25:10;38.33;;;22.05;;
30307;SDS011;17114;52.314;8.910;2023-02-22T10:30:42;38.22;;;21.05;;
30307;SDS011;17114;52.314;8.910;2023-02-22T10:33:32;35.88;;;20.23;;
30307;SDS011;17114;52.314;8.910;2023-02-22T10:36:03;39.63;;;22.58;;
30307;SDS011;17114;52.314;8.910;2023-02-22T10:38:32;41.50;;;21.70;;
30307;SDS011;17114;52.314;8.910;2023-02-22T10:43:36;38.28;;;20.90;;
30307;SDS011;17114;52.314;8.910;2023-02-22T10:46:10;35.97;;;21.10;;
30307;SDS011;17114;52.314;8.910;2023-02-22T10:48:41;39.85;;;21.20;;
30307;SDS011;17114;52.314;8.910;2023-02-22T10:51:10;41.88;;;22.85;;
30307;SDS011;17114;52.314;8.910;2023-02-22T10:53:38;45.85;;;22.95;;
30307;SDS011;17114;52.314;8.910;2023-02-22T10:56:07;36.53;;;20.60;;
30307;SDS011;17114;52.314;8.910;2023-02-22T11:03:57;39.25;;;20.90;;
30307;SDS011;17114;52.314;8.910;2023-02-22T11:06:27;37.28;;;20.77;;
30307;SDS011;17114;52.314;8.910;2023-02-22T11:09:09;35.50;;;20.25;;
30307;SDS011;17114;52.314;8.910;2023-02-22T11:11:38;35.72;;;20.85;;
30307;SDS011;17114;52.314;8.910;2023-02-22T11:14:12;37.47;;;20.23;;
30307;SDS011;17114;52.314;8.910;2023-02-22T11:16:54;34.92;;;19.40;;
30307;SDS011;17114;52.314;8.910;2023-02-22T11:19:23;36.65;;;19.60;;
30307;SDS011;17114;52.314;8.910;2023-02-22T11:24:47;31.40;;;19.20;;
30307;SDS011;17114;52.314;8.910;2023-02-22T11:27:27;35.13;;;19.35;;
30307;SDS011;17114;52.314;8.910;2023-02-22T11:30:48;32.47;;;19.05;;
30307;SDS011;17114;52.314;8.910;2023-02-22T11:38:21;33.92;;;18.55;;
30307;SDS011;17114;52.314;8.910;2023-02-22T11:46:59;32.85;;;18.65;;
30307;SDS011;17114;52.314;8.910;2023-02-22T11:49:36;34.38;;;17.98;;
30307;SDS011;17114;52.314;8.910;2023-02-22T11:55:07;29.40;;;17.80;;
30307;SDS011;17114;52.314;8.910;2023-02-22T11:58:08;30.98;;;16.92;;
30307;SDS011;17114;52.314;8.910;2023-02-22T12:01:07;30.80;;;16.10;;
30307;SDS011;17114;52.314;8.910;2023-02-22T12:03:50;27.33;;;15.50;;
30307;SDS011;17114;52.314;8.910;2023-02-22T12:06:35;24.98;;;15.48;;
30307;SDS011;17114;52.314;8.910;2023-02-22T12:09:53;25.05;;;15.60;;
30307;SDS011;17114;52.314;8.910;2023-02-22T12:20:50;24.80;;;14.60;;
30307;SDS011;17114;52.314;8.910;2023-02-22T12:29:05;22.88;;;14.00;;
30307;SDS011;17114;52.314;8.910;2023-02-22T12:39:51;21.85;;;12.65;;
30307;SDS011;17114;52.314;8.910;2023-02-22T12:45:33;23.10;;;12.73;;
30307;SDS011;17114;52.314;8.910;2023-02-22T12:50:32;19.45;;;10.57;;
30307;SDS011;17114;52.314;8.910;2023-02-22T12:53:07;17.83;;;11.18;;
30307;SDS011;17114;52.314;8.910;2023-02-22T12:58:23;19.15;;;10.50;;
30307;SDS011;17114;52.314;8.910;2023-02-22T13:12:02;20.15;;;11.82;;
30307;SDS011;17114;52.314;8.910;2023-02-22T13:15:09;18.75;;;11.38;;
30307;SDS011;17114;52.314;8.910;2023-02-22T13:20:52;18.58;;;10.77;;
30307;SDS011;17114;52.314;8.910;2023-02-22T13:26:36;20.42;;;11.05;;
30307;SDS011;17114;52.314;8.910;2023-02-22T13:34:33;21.90;;;10.50;;
30307;SDS011;17114;52.314;8.910;2023-02-22T13:42:45;14.90;;;9.02;;
30307;SDS011;17114;52.314;8.910;2023-02-22T13:53:42;16.13;;;9.75;;
30307;SDS011;17114;52.314;8.910;2023-02-22T13:56:13;14.30;;;9.68;;
30307;SDS011;17114;52.314;8.910;2023-02-22T13:59:02;14.25;;;9.25;;
30307;SDS011;17114;52.314;8.910;2023-02-22T14:07:04;14.38;;;8.38;;
30307;SDS011;17114;52.314;8.910;2023-02-22T14:17:58;15.27;;;9.00;;
30307;SDS011;17114;52.314;8.910;2023-02-22T14:20:34;13.95;;;8.93;;
30307;SDS011;17114;52.314;8.910;2023-02-22T14:25:51;15.63;;;9.45;;
30307;SDS011;17114;52.314;8.910;2023-02-22T14:31:04;12.18;;;7.82;;
30307;SDS011;17114;52.314;8.910;2023-02-22T14:34:20;12.90;;;7.97;;
30307;SDS011;17114;52.314;8.910;2023-02-22T14:36:40;14.45;;;8.60;;
30307;SDS011;17114;52.314;8.910;2023-02-22T14:39:43;16.83;;;8.85;;
30307;SDS011;17114;52.314;8.910;2023-02-22T14:42:40;13.07;;;8.48;;
30307;SDS011;17114;52.314;8.910;2023-02-22T14:48:33;13.07;;;8.55;;
30307;SDS011;17114;52.314;8.910;2023-02-22T14:53:56;13.45;;;7.85;;
30307;SDS011;17114;52.314;8.910;2023-02-22T14:56:36;18.55;;;8.48;;
30307;SDS011;17114;52.314;8.910;2023-02-22T14:59:18;13.32;;;8.63;;
30307;SDS011;17114;52.314;8.910;2023-02-22T15:01:47;12.60;;;8.05;;
30307;SDS011;17114;52.314;8.910;2023-02-22T15:04:34;12.32;;;8.43;;
30307;SDS011;17114;52.314;8.910;2023-02-22T15:12:55;13.65;;;7.88;;
30307;SDS011;17114;52.314;8.910;2023-02-22T15:15:53;12.75;;;8.77;;
30307;SDS011;17114;52.314;8.910;2023-02-22T15:18:29;12.15;;;7.85;;
30307;SDS011;17114;52.314;8.910;2023-02-22T15:21:06;13.35;;;8.57;;
30307;SDS011;17114;52.314;8.910;2023-02-22T15:23:55;11.65;;;7.88;;
30307;SDS011;17114;52.314;8.910;2023-02-22T15:26:42;12.63;;;7.07;;
30307;SDS011;17114;52.314;8.910;2023-02-22T15:29:37;10.48;;;6.80;;
30307;SDS011;17114;52.314;8.910;2023-02-22T15:32:48;10.07;;;6.90;;
30307;SDS011;17114;52.314;8.910;2023-02-22T15:35:44;11.10;;;6.70;;
30307;SDS011;17114;52.314;8.910;2023-02-22T15:37:59;18.17;;;8.60;;
30307;SDS011;17114;52.314;8.910;2023-02-22T15:40:28;23.30;;;14.07;;
30307;SDS011;17114;52.314;8.910;2023-02-22T15:43:04;12.65;;;9.00;;
30307;SDS011;17114;52.314;8.910;2023-02-22T15:45:38;12.48;;;7.20;;
30307;SDS011;17114;52.314;8.910;2023-02-22T15:48:11;12.63;;;7.40;;
30307;SDS011;17114;52.314;8.910;2023-02-22T15:50:56;13.50;;;7.65;;
30307;SDS011;17114;52.314;8.910;2023-02-22T15:53:26;14.32;;;7.57;;
30307;SDS011;17114;52.314;8.910;2023-02-22T15:55:59;11.68;;;7.85;;
30307;SDS011;17114;52.314;8.910;2023-02-22T15:58:30;10.48;;;7.30;;
30307;SDS011;17114;52.314;8.910;2023-02-22T16:01:00;13.38;;;7.53;;
30307;SDS011;17114;52.314;8.910;2023-02-22T16:08:59;14.38;;;7.18;;
30307;SDS011;17114;52.314;8.910;2023-02-22T16:11:34;15.23;;;7.13;;
30307;SDS011;17114;52.314;8.910;2023-02-22T16:19:57;12.38;;;6.93;;
30307;SDS011;17114;52.314;8.910;2023-02-22T16:22:48;15.13;;;7.75;;
30307;SDS011;17114;52.314;8.910;2023-02-22T16:27:48;10.30;;;7.05;;
30307;SDS011;17114;52.314;8.910;2023-02-22T16:30:24;12.75;;;7.68;;
30307;SDS011;17114;52.314;8.910;2023-02-22T16:33:02;11.65;;;7.10;;
30307;SDS011;17114;52.314;8.910;2023-02-22T16:35:31;10.32;;;6.55;;
30307;SDS011;17114;52.314;8.910;2023-02-22T16:38:02;11.27;;;7.57;;
30307;SDS011;17114;52.314;8.910;2023-02-22T16:40:35;12.05;;;7.72;;
30307;SDS011;17114;52.314;8.910;2023-02-22T16:43:14;13.10;;;8.45;;
30307;SDS011;17114;52.314;8.910;2023-02-22T16:45:56;14.02;;;8.15;;
30307;SDS011;17114;52.314;8.910;2023-02-22T16:48:28;14.00;;;7.93;;
30307;SDS011;17114;52.314;8.910;2023-02-22T16:51:47;15.52;;;7.43;;
30307;SDS011;17114;52.314;8.910;2023-02-22T16:54:03;12.35;;;7.63;;
30307;SDS011;17114;52.314;8.910;2023-02-22T16:56:31;10.95;;;8.32;;
30307;SDS011;17114;52.314;8.910;2023-02-22T16:59:00;14.38;;;9.52;;
30307;SDS011;17114;52.314;8.910;2023-02-22T17:01:29;13.07;;;8.48;;
30307;SDS011;17114;52.314;8.910;2023-02-22T17:04:00;11.68;;;7.93;;
30307;SDS011;17114;52.314;8.910;2023-02-22T17:06:28;15.02;;;8.80;;
30307;SDS011;17114;52.314;8.910;2023-02-22T17:08:55;10.73;;;7.45;;
30307;SDS011;17114;52.314;8.910;2023-02-22T17:11:23;15.02;;;8.05;;
30307;SDS011;17114;52.314;8.910;2023-02-22T17:13:51;13.38;;;7.95;;
30307;SDS011;17114;52.314;8.910;2023-02-22T17:16:21;12.52;;;7.93;;
30307;SDS011;17114;52.314;8.910;2023-02-22T17:18:52;13.77;;;7.93;;
30307;SDS011;17114;52.314;8.910;2023-02-22T17:21:26;17.70;;;10.15;;
30307;SDS011;17114;52.314;8.910;2023-02-22T17:24:02;13.60;;;9.02;;
30307;SDS011;17114;52.314;8.910;2023-02-22T17:26:53;14.65;;;8.52;;
30307;SDS011;17114;52.314;8.910;2023-02-22T17:29:23;16.45;;;9.55;;
30307;SDS011;17114;52.314;8.910;2023-02-22T17:31:54;12.07;;;8.98;;
30307;SDS011;17114;52.314;8.910;2023-02-22T17:34:23;14.75;;;9.00;;
30307;SDS011;17114;52.314;8.910;2023-02-22T17:36:50;14.35;;;8.93;;
30307;SDS011;17114;52.314;8.910;2023-02-22T17:39:18;16.33;;;9.32;;
30307;SDS011;17114;52.314;8.910;2023-02-22T17:41:53;18.80;;;11.02;;
30307;SDS011;17114;52.314;8.910;2023-02-22T17:44:25;18.23;;;11.45;;
30307;SDS011;17114;52.314;8.910;2023-02-22T17:46:55;19.33;;;10.80;;
30307;SDS011;17114;52.314;8.910;2023-02-22T17:49:29;18.50;;;10.90;;
30307;SDS011;17114;52.314;8.910;2023-02-22T17:52:01;18.45;;;10.63;;
30307;SDS011;17114;52.314;8.910;2023-02-22T17:54:42;14.13;;;9.48;;
30307;SDS011;17114;52.314;8.910;2023-02-22T17:57:10;18.80;;;10.75;;
30307;SDS011;17114;52.314;8.910;2023-02-22T17:59:38;18.67;;;11.45;;
30307;SDS011;17114;52.314;8.910;2023-02-22T18:02:08;15.70;;;10.23;;
30307;SDS011;17114;52.314;8.910;2023-02-22T18:04:38;20.55;;;12.15;;
30307;SDS011;17114;52.314;8.910;2023-02-22T18:07:07;22.58;;;11.65;;
30307;SDS011;17114;52.314;8.910;2023-02-22T18:09:35;24.30;;;12.82;;
30307;SDS011;17114;52.314;8.910;2023-02-22T18:12:10;18.08;;;10.73;;
30307;SDS011;17114;52.314;8.910;2023-02-22T18:14:38;18.05;;;10.25;;
30307;SDS011;17114;52.314;8.910;2023-02-22T18:17:19;20.05;;;10.55;;
30307;SDS011;17114;52.314;8.910;2023-02-22T18:20:27;19.48;;;10.77;;
30307;SDS011;17114;52.314;8.910;2023-02-22T18:23:07;17.88;;;10.68;;
30307;SDS011;17114;52.314;8.910;2023-02-22T18:25:38;22.70;;;13.90;;
30307;SDS011;17114;52.314;8.910;2023-02-22T18:28:29;19.60;;;12.00;;
30307;SDS011;17114;52.314;8.910;2023-02-22T18:30:58;24.02;;;13.18;;
30307;SDS011;17114;52.314;8.910;2023-02-22T18:33:31;22.95;;;13.55;;
30307;SDS011;17114;52.314;8.910;2023-02-22T18:35:58;22.52;;;13.38;;
30307;SDS011;17114;52.314;8.910;2023-02-22T18:38:26;23.23;;;13.52;;
30307;SDS011;17114;52.314;8.910;2023-02-22T18:41:04;22.92;;;12.00;;